This is the latest recevied weather packets stored in our database for station/object DL6DJ-15. If no packets are shown the sender has not sent any weather packets the latest 10 day(s).
| Time | Temp. | Humidity | Pressure | Rain* | Wind** | Luminosity | Snow |
|---|---|---|---|---|---|---|---|
| 1777790506 | 26.67° C | 20% | 1017.6 hPa | - | - | - | - |
| 1777790206 | 26.67° C | 20% | 1017.7 hPa | - | - | - | - |
| 1777789905 | 26.11° C | 21% | 1017.7 hPa | - | - | - | - |
| 1777789605 | 25.56° C | 25% | 1017.6 hPa | - | - | - | - |
| 1777789305 | 24.44° C | 28% | 1017.5 hPa | - | - | - | - |
| 1777789005 | 22.78° C | 32% | 1017.6 hPa | - | - | - | - |
| 1777788704 | 21.67° C | 33% | 1017.6 hPa | - | - | - | - |
| 1777788404 | 20° C | 35% | 1017.6 hPa | - | - | - | - |
| 1777788103 | 18.33° C | 37% | 1017.6 hPa | - | - | - | - |
| 1777787803 | 17.22° C | 39% | 1017.7 hPa | - | - | - | - |
| 1777787503 | 16.11° C | 41% | 1017.7 hPa | - | - | - | - |
| 1777787203 | 15.56° C | 42% | 1017.5 hPa | - | - | - | - |
| 1777786902 | 15.56° C | 41% | 1017.5 hPa | - | - | - | - |
| 1777786602 | 15.56° C | 42% | 1017.5 hPa | - | - | - | - |
| 1777786301 | 15° C | 42% | 1017.5 hPa | - | - | - | - |
| 1777786001 | 14.44° C | 45% | 1017.5 hPa | - | - | - | - |
| 1777785700 | 12.78° C | 49% | 1017.6 hPa | - | - | - | - |
| 1777785400 | 11.67° C | 54% | 1017.6 hPa | - | - | - | - |
| 1777785099 | 10.56° C | 58% | 1017.6 hPa | - | - | - | - |
| 1777784799 | 9.44° C | 60% | 1017.5 hPa | - | - | - | - |
| 1777784499 | 8.33° C | 63% | 1017.5 hPa | - | - | - | - |
| 1777784198 | 7.22° C | 66% | 1017.5 hPa | - | - | - | - |
| 1777783898 | 6.67° C | 68% | 1017.5 hPa | - | - | - | - |
| 1777783598 | 6.67° C | 68% | 1017.5 hPa | - | - | - | - |
| 1777783298 | 6.11° C | 68% | 1017.5 hPa | - | - | - | - |
* Rain since midnight (hover to see other rain measurements)
** Current wind speed in m/s (hover to see current wind gust speed)